createdAt,value
2023-09-26T00:01:30.577Z,19.25
2023-09-26T00:04:00.271Z,19.24
2023-09-26T00:06:26.905Z,19.19
2023-09-26T00:08:53.335Z,19.15
2023-09-26T00:11:20.629Z,19.10
2023-09-26T00:13:47.334Z,19.06
2023-09-26T00:16:13.826Z,19.02
2023-09-26T00:18:40.288Z,19.00
2023-09-26T00:21:07.553Z,18.98
2023-09-26T00:23:33.953Z,18.95
2023-09-26T00:26:00.344Z,18.89
2023-09-26T00:28:26.862Z,18.81
2023-09-26T00:30:53.300Z,18.79
2023-09-26T00:33:19.706Z,18.79
2023-09-26T00:35:46.121Z,18.79
2023-09-26T00:38:12.585Z,18.75
2023-09-26T00:40:41.091Z,18.69
2023-09-26T00:43:07.590Z,18.63
2023-09-26T00:45:34.188Z,18.57
2023-09-26T00:48:00.724Z,18.50
2023-09-26T00:50:27.173Z,18.43
2023-09-26T00:52:53.762Z,18.30
2023-09-26T00:55:23.673Z,18.26
2023-09-26T00:57:50.430Z,18.20
2023-09-26T01:00:18.950Z,18.19
2023-09-26T01:02:45.488Z,18.17
2023-09-26T01:05:12.269Z,18.18
2023-09-26T01:07:40.519Z,18.17
2023-09-26T01:10:07.075Z,18.15
2023-09-26T01:12:33.575Z,18.11
2023-09-26T01:15:00.049Z,18.10
2023-09-26T01:17:30.716Z,18.10
2023-09-26T01:19:57.381Z,18.06
2023-09-26T01:22:28.129Z,18.04
2023-09-26T01:24:57.457Z,18.00
2023-09-26T01:27:23.859Z,17.92
2023-09-26T01:29:50.269Z,17.87
2023-09-26T01:32:16.700Z,17.83
2023-09-26T01:34:43.101Z,17.81
2023-09-26T01:37:09.565Z,17.79
2023-09-26T01:39:35.965Z,17.77
2023-09-26T01:42:02.358Z,17.75
2023-09-26T01:44:28.817Z,17.73
2023-09-26T01:46:55.367Z,17.68
2023-09-26T01:49:21.978Z,17.66
2023-09-26T01:51:48.320Z,17.63
2023-09-26T01:54:14.744Z,17.59
2023-09-26T01:56:41.103Z,17.57
2023-09-26T01:59:07.458Z,17.53
2023-09-26T02:01:33.936Z,17.47
2023-09-26T02:04:00.333Z,17.39
2023-09-26T02:06:26.908Z,17.37
2023-09-26T02:08:53.294Z,17.38
2023-09-26T02:11:19.673Z,17.37
2023-09-26T02:13:46.168Z,17.35
2023-09-26T02:16:13.473Z,17.33
2023-09-26T02:18:40.044Z,17.33
2023-09-26T02:21:06.421Z,17.33
2023-09-26T02:23:32.831Z,17.31
2023-09-26T02:25:59.192Z,17.31
2023-09-26T02:28:25.613Z,17.24
2023-09-26T02:30:52.048Z,17.21
2023-09-26T02:33:18.454Z,17.14
2023-09-26T02:35:44.778Z,17.12
2023-09-26T02:38:11.215Z,17.06
2023-09-26T02:40:37.650Z,17.07
2023-09-26T02:43:04.156Z,17.07
2023-09-26T02:45:31.731Z,17.07
2023-09-26T02:47:58.451Z,17.07
2023-09-26T02:50:24.958Z,17.07
2023-09-26T02:52:51.429Z,17.05
2023-09-26T02:55:17.841Z,17.00
2023-09-26T02:57:44.272Z,16.93
2023-09-26T03:00:10.946Z,16.89
2023-09-26T03:02:37.425Z,16.88
2023-09-26T03:05:04.041Z,16.88
2023-09-26T03:07:30.442Z,16.83
2023-09-26T03:09:57.040Z,16.75
2023-09-26T03:12:23.387Z,16.73
2023-09-26T03:14:49.741Z,16.70
2023-09-26T03:17:16.660Z,16.66
2023-09-26T03:19:45.770Z,16.64
2023-09-26T03:22:12.118Z,16.63
2023-09-26T03:24:38.439Z,16.62
2023-09-26T03:27:04.828Z,16.59
2023-09-26T03:29:31.315Z,16.59
2023-09-26T03:31:58.065Z,16.57
2023-09-26T03:34:27.696Z,16.55
2023-09-26T03:36:54.102Z,16.52
2023-09-26T03:39:20.569Z,16.50
2023-09-26T03:41:46.946Z,16.46
2023-09-26T03:44:13.291Z,16.39
2023-09-26T03:46:39.867Z,16.36
2023-09-26T03:49:06.498Z,16.32
2023-09-26T03:51:32.925Z,16.32
2023-09-26T03:53:59.326Z,16.27
2023-09-26T03:56:25.724Z,16.26
2023-09-26T03:58:53.372Z,16.28
2023-09-26T04:01:19.840Z,16.25
2023-09-26T04:03:47.217Z,16.18
2023-09-26T04:06:13.998Z,16.15
2023-09-26T04:08:40.515Z,16.10
2023-09-26T04:11:06.939Z,16.09
2023-09-26T04:13:33.360Z,16.04
2023-09-26T04:16:04.332Z,16.03
2023-09-26T04:18:30.761Z,16.01
2023-09-26T04:20:57.291Z,16.01
2023-09-26T04:23:23.637Z,15.99
2023-09-26T04:25:50.035Z,15.97
2023-09-26T04:28:16.416Z,15.97
2023-09-26T04:30:42.875Z,15.97
2023-09-26T04:33:09.561Z,15.97
2023-09-26T04:35:37.196Z,15.96
2023-09-26T04:38:07.125Z,15.92
2023-09-26T04:40:35.191Z,15.90
2023-09-26T04:43:03.734Z,15.86
2023-09-26T04:45:33.884Z,15.86
2023-09-26T04:48:01.155Z,15.86
2023-09-26T04:50:28.817Z,15.87
2023-09-26T04:52:55.654Z,15.82
2023-09-26T04:55:22.157Z,15.78
2023-09-26T04:57:48.584Z,15.79
2023-09-26T05:00:15.502Z,15.75
2023-09-26T05:02:41.972Z,15.70
2023-09-26T05:05:08.790Z,15.65
2023-09-26T05:07:35.321Z,15.63
2023-09-26T05:10:01.906Z,15.66
2023-09-26T05:12:29.164Z,15.56
2023-09-26T05:14:56.717Z,15.53
2023-09-26T05:17:24.209Z,15.54
2023-09-26T05:19:50.606Z,15.59
2023-09-26T05:22:17.057Z,15.63
2023-09-26T05:24:43.786Z,15.62
2023-09-26T05:27:10.203Z,15.59
2023-09-26T05:29:36.609Z,15.58
2023-09-26T05:32:03.247Z,15.59
2023-09-26T05:34:29.824Z,15.60
2023-09-26T05:36:56.489Z,15.63
2023-09-26T05:39:23.002Z,15.65
2023-09-26T05:41:49.366Z,15.64
2023-09-26T05:44:15.767Z,15.66
2023-09-26T05:46:42.404Z,15.66
2023-09-26T05:49:08.953Z,15.69
2023-09-26T05:51:35.381Z,15.69
2023-09-26T05:54:01.733Z,15.66
2023-09-26T05:56:28.610Z,15.60
2023-09-26T05:58:55.003Z,15.52
2023-09-26T06:01:21.737Z,15.54
2023-09-26T06:03:48.303Z,15.54
2023-09-26T06:06:14.742Z,15.56
2023-09-26T06:08:41.110Z,15.57
2023-09-26T06:11:07.514Z,15.59
2023-09-26T06:13:33.933Z,15.58
2023-09-26T06:16:00.354Z,15.63
2023-09-26T06:18:28.339Z,15.68
2023-09-26T06:20:54.710Z,15.71
2023-09-26T06:23:21.107Z,15.73
2023-09-26T06:25:57.569Z,15.76
2023-09-26T06:28:24.311Z,15.76
2023-09-26T06:30:51.030Z,15.77
2023-09-26T06:33:17.631Z,15.82
2023-09-26T06:35:44.904Z,15.88
2023-09-26T06:38:11.476Z,15.94
2023-09-26T06:40:37.863Z,15.99
2023-09-26T06:43:04.529Z,15.98
2023-09-26T06:45:31.104Z,15.97
2023-09-26T06:47:57.565Z,15.97
2023-09-26T06:50:24.005Z,16.02
2023-09-26T06:52:50.353Z,16.09
2023-09-26T06:55:16.991Z,16.20
2023-09-26T06:57:43.558Z,16.24
2023-09-26T07:00:10.393Z,16.33
2023-09-26T07:02:36.833Z,16.43
2023-09-26T07:05:03.522Z,16.51
2023-09-26T07:07:29.924Z,16.61
2023-09-26T07:09:56.473Z,16.72
2023-09-26T07:12:22.814Z,16.83
2023-09-26T07:14:49.205Z,16.96
2023-09-26T07:17:15.766Z,17.06
2023-09-26T07:19:42.208Z,17.16
2023-09-26T07:22:08.771Z,17.20
2023-09-26T07:24:48.757Z,17.25
2023-09-26T07:27:17.618Z,17.16
2023-09-26T07:29:47.308Z,17.32
2023-09-26T07:32:15.778Z,17.44
2023-09-26T07:34:42.495Z,17.65
2023-09-26T07:37:09.094Z,17.77
2023-09-26T07:39:35.575Z,17.86
2023-09-26T07:42:01.957Z,17.82
2023-09-26T07:44:28.672Z,17.86
2023-09-26T07:46:55.106Z,17.94
2023-09-26T07:49:21.714Z,18.07
2023-09-26T07:51:48.142Z,18.14
2023-09-26T07:54:14.546Z,18.26
2023-09-26T07:56:40.915Z,18.43
2023-09-26T07:59:07.383Z,18.62
2023-09-26T08:01:33.814Z,18.67
2023-09-26T08:04:00.268Z,18.69
2023-09-26T08:06:26.871Z,18.82
2023-09-26T08:08:53.307Z,18.89
2023-09-26T08:11:19.668Z,18.92
2023-09-26T08:13:46.031Z,18.81
2023-09-26T08:16:12.479Z,18.90
2023-09-26T08:18:38.976Z,19.02
2023-09-26T08:21:06.419Z,19.10
2023-09-26T08:23:32.995Z,19.17
2023-09-26T08:26:02.299Z,19.21
2023-09-26T08:28:29.163Z,19.28
2023-09-26T08:30:55.690Z,19.29
2023-09-26T08:33:22.103Z,19.45
2023-09-26T08:35:48.595Z,19.46
2023-09-26T08:38:14.957Z,19.53
2023-09-26T08:40:42.108Z,19.69
2023-09-26T08:43:09.268Z,19.86
2023-09-26T08:45:35.704Z,19.97
2023-09-26T08:48:02.254Z,20.28
2023-09-26T08:50:28.802Z,20.44
2023-09-26T08:52:55.230Z,20.62
2023-09-26T08:55:21.748Z,20.74
2023-09-26T08:57:51.033Z,20.88
2023-09-26T09:00:19.071Z,20.89
2023-09-26T09:02:45.631Z,21.01
2023-09-26T09:05:12.090Z,21.21
2023-09-26T09:07:41.588Z,21.31
2023-09-26T09:10:14.149Z,21.60
2023-09-26T09:12:42.206Z,21.65
2023-09-26T09:15:08.767Z,21.78
2023-09-26T09:17:41.475Z,21.87
2023-09-26T09:20:09.294Z,21.98
2023-09-26T09:22:35.783Z,22.13
2023-09-26T09:25:03.285Z,22.17
2023-09-26T09:27:37.355Z,22.46
2023-09-26T09:30:03.813Z,22.55
2023-09-26T09:32:30.259Z,22.84
2023-09-26T09:34:56.949Z,22.91
2023-09-26T09:37:23.543Z,22.90
2023-09-26T09:39:49.971Z,22.76
2023-09-26T09:42:16.502Z,22.57
2023-09-26T09:44:42.990Z,22.58
2023-09-26T09:47:10.320Z,22.51
2023-09-26T09:49:41.825Z,22.66
2023-09-26T09:52:10.955Z,22.59
2023-09-26T09:54:44.291Z,22.73
2023-09-26T09:57:10.698Z,22.83
2023-09-26T09:59:41.449Z,22.88
2023-09-26T10:02:08.245Z,22.78
2023-09-26T10:04:36.710Z,22.80
2023-09-26T10:07:03.179Z,22.59
2023-09-26T10:09:31.825Z,22.58
2023-09-26T10:12:00.082Z,22.59
2023-09-26T10:14:27.787Z,22.59
2023-09-26T10:16:57.036Z,22.53
2023-09-26T10:19:33.526Z,22.55
2023-09-26T10:22:20.276Z,22.54
2023-09-26T10:24:54.109Z,22.72
2023-09-26T10:30:19.675Z,22.91
2023-09-26T10:32:47.172Z,23.00
2023-09-26T10:35:17.515Z,23.12
2023-09-26T10:38:12.490Z,23.15
2023-09-26T10:40:38.965Z,23.24
2023-09-26T10:45:34.792Z,23.40
2023-09-26T10:50:57.108Z,23.39
2023-09-26T10:53:23.837Z,23.31
2023-09-26T10:55:50.239Z,23.23
2023-09-26T10:58:20.819Z,23.21
2023-09-26T11:00:51.902Z,23.23
2023-09-26T11:03:18.865Z,23.21
2023-09-26T11:05:46.282Z,23.35
2023-09-26T11:08:15.700Z,23.36
2023-09-26T11:10:50.032Z,23.34
2023-09-26T11:13:17.591Z,23.43
2023-09-26T11:15:44.180Z,23.72
2023-09-26T11:18:12.712Z,23.93
2023-09-26T11:20:50.539Z,24.08
2023-09-26T11:23:35.668Z,24.30
2023-09-26T11:26:02.290Z,24.31
2023-09-26T11:28:28.840Z,24.41
2023-09-26T11:30:55.304Z,24.46
2023-09-26T11:33:21.763Z,24.65
2023-09-26T11:35:48.146Z,24.68
2023-09-26T11:38:14.818Z,24.77
2023-09-26T11:40:41.449Z,25.21
2023-09-26T11:43:07.951Z,25.37
2023-09-26T11:45:35.720Z,25.31
2023-09-26T11:48:02.509Z,25.21
2023-09-26T11:50:29.821Z,25.15
2023-09-26T11:52:57.187Z,25.00
2023-09-26T11:55:23.694Z,25.00
2023-09-26T11:57:50.957Z,24.94
2023-09-26T12:00:18.584Z,24.97
2023-09-26T12:02:46.963Z,25.19
2023-09-26T12:05:14.103Z,25.28
2023-09-26T12:07:41.768Z,25.46
2023-09-26T12:10:09.857Z,25.74
2023-09-26T12:12:37.083Z,25.64
2023-09-26T12:15:39.068Z,25.59
2023-09-26T12:18:06.290Z,25.61
2023-09-26T12:20:32.838Z,25.56
2023-09-26T12:22:59.249Z,25.44
2023-09-26T12:25:27.148Z,25.17
2023-09-26T12:27:54.499Z,25.16
2023-09-26T12:30:24.410Z,25.20
2023-09-26T12:32:51.601Z,24.94
2023-09-26T12:35:18.694Z,25.01
2023-09-26T12:37:47.150Z,25.12
2023-09-26T12:40:14.470Z,25.22
2023-09-26T12:42:41.692Z,25.43
2023-09-26T12:45:09.046Z,25.51
2023-09-26T12:47:35.864Z,25.67
2023-09-26T12:50:02.385Z,25.80
2023-09-26T12:52:29.052Z,25.87
2023-09-26T12:54:55.518Z,26.05
2023-09-26T12:57:21.951Z,26.32
2023-09-26T12:59:51.894Z,26.57
2023-09-26T13:02:18.594Z,26.35
2023-09-26T13:04:45.070Z,26.30
2023-09-26T13:07:11.560Z,26.34
2023-09-26T13:09:37.924Z,26.40
2023-09-26T13:12:04.515Z,26.34
2023-09-26T13:14:30.896Z,26.29
2023-09-26T13:16:57.675Z,26.42
2023-09-26T13:19:24.131Z,26.40
2023-09-26T13:21:50.559Z,26.49
2023-09-26T13:24:17.030Z,26.47
2023-09-26T13:26:43.528Z,26.24
2023-09-26T13:29:11.142Z,26.01
2023-09-26T13:31:37.609Z,25.98
2023-09-26T13:34:04.183Z,25.94
2023-09-26T13:36:30.616Z,25.95
2023-09-26T13:38:56.998Z,25.97
2023-09-26T13:41:23.354Z,25.99
2023-09-26T13:43:49.804Z,25.97
2023-09-26T13:46:16.241Z,25.93
2023-09-26T13:48:42.629Z,25.66
2023-09-26T13:51:08.981Z,25.73
2023-09-26T13:53:36.170Z,25.73
2023-09-26T13:56:02.656Z,25.64
2023-09-26T13:58:29.034Z,25.58
2023-09-26T14:00:55.515Z,25.47
2023-09-26T14:03:22.044Z,25.37
2023-09-26T14:05:48.637Z,25.37
2023-09-26T14:08:15.149Z,25.40
2023-09-26T14:10:41.597Z,25.43
2023-09-26T14:13:08.007Z,25.49
2023-09-26T14:15:34.413Z,25.52
2023-09-26T14:18:00.943Z,25.50
2023-09-26T14:20:27.823Z,25.44
2023-09-26T14:22:55.074Z,25.38
2023-09-26T14:25:21.560Z,25.27
2023-09-26T14:27:48.084Z,25.17
2023-09-26T14:30:14.800Z,25.00
2023-09-26T14:32:41.758Z,24.97
2023-09-26T14:35:09.893Z,24.85
2023-09-26T14:37:36.395Z,24.87
2023-09-26T14:40:02.840Z,24.91
2023-09-26T14:42:29.204Z,24.99
2023-09-26T14:44:55.690Z,25.04
2023-09-26T14:47:22.108Z,25.10
2023-09-26T14:49:48.494Z,25.16
2023-09-26T14:52:14.899Z,25.23
2023-09-26T14:54:41.292Z,25.24
2023-09-26T14:57:07.690Z,25.14
2023-09-26T14:59:34.041Z,24.98
2023-09-26T15:02:00.481Z,24.98
2023-09-26T15:04:27.010Z,24.99
2023-09-26T15:06:53.372Z,24.84
2023-09-26T15:09:19.697Z,24.72
2023-09-26T15:11:46.054Z,24.71
2023-09-26T15:14:13.921Z,24.70
2023-09-26T15:16:40.721Z,24.67
2023-09-26T15:19:07.262Z,24.56
2023-09-26T15:21:33.837Z,24.51
2023-09-26T15:24:00.318Z,24.42
2023-09-26T15:26:26.784Z,24.41
2023-09-26T15:28:53.182Z,24.34
2023-09-26T15:31:19.590Z,24.34
2023-09-26T15:33:46.490Z,24.30
2023-09-26T15:36:14.039Z,24.26
2023-09-26T15:38:40.377Z,24.24
2023-09-26T15:41:16.598Z,24.23
2023-09-26T15:43:45.183Z,24.17
2023-09-26T15:46:11.889Z,24.17
2023-09-26T15:48:38.359Z,24.11
2023-09-26T15:51:11.592Z,24.02
2023-09-26T15:53:38.686Z,24.06
2023-09-26T15:56:05.137Z,24.08
2023-09-26T15:58:31.551Z,23.98
2023-09-26T16:00:58.066Z,23.94
2023-09-26T16:03:24.472Z,23.86
2023-09-26T16:05:51.244Z,23.82
2023-09-26T16:08:17.778Z,23.72
2023-09-26T16:10:44.293Z,23.55
2023-09-26T16:13:10.967Z,23.49
2023-09-26T16:15:37.506Z,23.47
2023-09-26T16:18:04.331Z,23.47
2023-09-26T16:20:30.755Z,23.52
2023-09-26T16:22:57.424Z,23.50
2023-09-26T16:25:23.869Z,23.51
2023-09-26T16:27:50.355Z,23.49
2023-09-26T16:30:16.824Z,23.46
2023-09-26T16:32:43.426Z,23.43
2023-09-26T16:35:10.049Z,23.38
2023-09-26T16:37:36.578Z,23.30
2023-09-26T16:40:03.375Z,23.25
2023-09-26T16:42:29.786Z,23.22
2023-09-26T16:44:56.251Z,23.16
2023-09-26T16:47:22.665Z,23.11
2023-09-26T16:49:49.166Z,23.04
2023-09-26T16:52:15.972Z,22.95
2023-09-26T16:54:42.398Z,22.91
2023-09-26T16:57:08.827Z,22.89
2023-09-26T16:59:35.310Z,22.84
2023-09-26T17:02:01.832Z,22.79
2023-09-26T17:04:29.137Z,22.75
2023-09-26T17:06:55.644Z,22.67
2023-09-26T17:09:22.087Z,22.64
2023-09-26T17:11:50.453Z,22.61
2023-09-26T17:14:17.220Z,22.53
2023-09-26T17:16:43.668Z,22.48
2023-09-26T17:19:10.073Z,22.40
2023-09-26T17:21:36.496Z,22.33
2023-09-26T17:24:03.051Z,22.28
2023-09-26T17:26:29.435Z,22.27
2023-09-26T17:28:55.926Z,22.22
2023-09-26T17:31:22.339Z,22.19
2023-09-26T17:33:48.794Z,22.13
2023-09-26T17:36:15.201Z,22.08
2023-09-26T17:38:41.544Z,22.04
2023-09-26T17:41:08.785Z,22.00
2023-09-26T17:43:37.220Z,21.94
2023-09-26T17:46:04.269Z,21.86
2023-09-26T17:48:31.575Z,21.81
2023-09-26T17:50:58.856Z,21.75
2023-09-26T17:53:25.231Z,21.70
2023-09-26T17:55:51.679Z,21.68
2023-09-26T17:58:18.141Z,21.62
2023-09-26T18:00:44.637Z,21.58
2023-09-26T18:03:11.051Z,21.52
2023-09-26T18:05:37.566Z,21.47
2023-09-26T18:08:04.180Z,21.42
2023-09-26T18:10:30.549Z,21.38
2023-09-26T18:12:56.993Z,21.35
2023-09-26T18:15:23.414Z,21.32
2023-09-26T18:17:50.084Z,21.29
2023-09-26T18:20:16.630Z,21.27
2023-09-26T18:22:43.133Z,21.26
2023-09-26T18:25:09.989Z,21.23
2023-09-26T18:27:36.379Z,21.22
2023-09-26T18:30:02.869Z,21.23
2023-09-26T18:32:29.292Z,21.22
2023-09-26T18:34:56.188Z,21.19
2023-09-26T18:37:22.636Z,21.14
2023-09-26T18:39:49.021Z,21.11
2023-09-26T18:42:15.680Z,21.10
2023-09-26T18:44:42.080Z,21.10
2023-09-26T18:47:08.509Z,21.07
2023-09-26T18:49:35.178Z,21.06
2023-09-26T18:52:01.606Z,21.02
2023-09-26T18:54:28.093Z,21.03
2023-09-26T18:56:54.672Z,21.04
2023-09-26T18:59:21.232Z,21.07
2023-09-26T19:01:48.749Z,21.05
2023-09-26T19:04:15.427Z,21.04
2023-09-26T19:06:42.122Z,21.03
2023-09-26T19:09:08.677Z,20.97
2023-09-26T19:11:35.097Z,20.96
2023-09-26T19:14:01.568Z,20.96
2023-09-26T19:16:28.572Z,20.96
2023-09-26T19:19:04.978Z,20.96
2023-09-26T19:21:33.520Z,20.92
2023-09-26T19:24:00.003Z,20.92
2023-09-26T19:26:26.469Z,20.90
2023-09-26T19:28:52.966Z,20.91
2023-09-26T19:31:19.451Z,20.85
2023-09-26T19:33:45.837Z,20.85
2023-09-26T19:36:12.339Z,20.85
2023-09-26T19:38:38.702Z,20.81
2023-09-26T19:41:05.073Z,20.80
2023-09-26T19:43:31.508Z,20.79
2023-09-26T19:45:58.444Z,20.76
2023-09-26T19:48:24.870Z,20.78
2023-09-26T19:50:51.303Z,20.79
2023-09-26T19:53:17.859Z,20.74
2023-09-26T19:55:48.114Z,20.69
2023-09-26T19:58:14.796Z,20.70
2023-09-26T20:00:42.242Z,20.69
2023-09-26T20:03:09.533Z,20.66
2023-09-26T20:05:36.066Z,20.57
2023-09-26T20:08:02.593Z,20.57
2023-09-26T20:10:29.050Z,20.53
2023-09-26T20:12:55.576Z,20.41
2023-09-26T20:15:24.170Z,20.46
2023-09-26T20:17:51.153Z,20.44
2023-09-26T20:20:17.648Z,20.41
2023-09-26T20:22:44.245Z,20.40
2023-09-26T20:25:10.702Z,20.35
2023-09-26T20:27:37.955Z,20.28
2023-09-26T20:30:04.873Z,20.23
2023-09-26T20:32:31.838Z,20.19
2023-09-26T20:34:58.516Z,20.17
2023-09-26T20:37:24.982Z,20.12
2023-09-26T20:39:51.426Z,20.06
2023-09-26T20:42:17.818Z,20.03
2023-09-26T20:44:44.184Z,19.95
2023-09-26T20:47:10.719Z,19.94
2023-09-26T20:49:37.290Z,19.88
2023-09-26T20:52:03.777Z,19.80
2023-09-26T20:54:30.152Z,19.76
2023-09-26T20:56:56.633Z,19.69
2023-09-26T20:59:23.150Z,19.67
2023-09-26T21:01:49.715Z,19.64
2023-09-26T21:04:16.269Z,19.61
2023-09-26T21:06:43.257Z,19.62
2023-09-26T21:09:09.871Z,19.62
2023-09-26T21:11:36.287Z,19.61
2023-09-26T21:14:02.676Z,19.60
2023-09-26T21:16:29.173Z,19.60
2023-09-26T21:18:55.892Z,19.60
2023-09-26T21:21:24.401Z,19.61
2023-09-26T21:23:51.397Z,19.67
2023-09-26T21:26:19.383Z,19.55
2023-09-26T21:28:46.174Z,19.63
2023-09-26T21:31:12.743Z,19.65
2023-09-26T21:33:39.269Z,19.67
2023-09-26T21:36:06.224Z,19.69
2023-09-26T21:38:32.928Z,19.78
2023-09-26T21:40:59.513Z,19.86
2023-09-26T21:43:26.066Z,19.86
2023-09-26T21:45:52.654Z,19.81
2023-09-26T21:48:19.193Z,19.91
2023-09-26T21:50:45.712Z,19.87
2023-09-26T21:53:13.536Z,19.88
2023-09-26T21:55:39.997Z,19.98
2023-09-26T21:58:06.458Z,19.97
2023-09-26T22:00:32.871Z,20.05
2023-09-26T22:02:59.324Z,20.12
2023-09-26T22:05:26.021Z,20.12
2023-09-26T22:07:53.931Z,20.14
2023-09-26T22:10:21.106Z,20.17
2023-09-26T22:12:47.531Z,20.17
2023-09-26T22:15:13.956Z,20.13
2023-09-26T22:17:41.274Z,20.20
2023-09-26T22:20:13.942Z,20.16
2023-09-26T22:22:40.807Z,20.13
2023-09-26T22:25:09.355Z,20.12
2023-09-26T22:27:36.456Z,20.10
2023-09-26T22:30:04.910Z,20.07
2023-09-26T22:32:31.397Z,20.15
2023-09-26T22:34:58.375Z,20.09
2023-09-26T22:37:24.831Z,20.11
2023-09-26T22:39:51.395Z,20.02
2023-09-26T22:42:17.741Z,20.08
2023-09-26T22:44:44.219Z,20.10
2023-09-26T22:47:11.076Z,20.08
2023-09-26T22:49:37.607Z,20.05
2023-09-26T22:52:04.636Z,20.03
2023-09-26T22:54:31.249Z,19.92
2023-09-26T22:56:57.771Z,19.80
2023-09-26T22:59:25.085Z,19.58
2023-09-26T23:01:52.389Z,19.29
2023-09-26T23:04:19.480Z,18.98
2023-09-26T23:06:46.188Z,18.84
2023-09-26T23:09:13.662Z,18.73
2023-09-26T23:11:40.315Z,18.64
2023-09-26T23:14:06.906Z,18.58
2023-09-26T23:16:33.589Z,18.55
2023-09-26T23:18:59.969Z,18.38
2023-09-26T23:21:26.446Z,18.41
2023-09-26T23:23:52.765Z,18.36
2023-09-26T23:26:19.292Z,18.35
2023-09-26T23:28:45.750Z,18.34
2023-09-26T23:31:13.582Z,18.24
2023-09-26T23:33:40.078Z,18.28
2023-09-26T23:36:07.448Z,18.29
2023-09-26T23:38:34.358Z,18.26
2023-09-26T23:41:00.745Z,18.24
2023-09-26T23:43:27.987Z,18.30
2023-09-26T23:45:54.878Z,18.30
2023-09-26T23:48:21.341Z,18.27
2023-09-26T23:50:47.671Z,18.34
2023-09-26T23:53:14.188Z,18.35
2023-09-26T23:55:40.630Z,18.33
2023-09-26T23:58:07.024Z,18.36
